sensor_id;sensor_type;location;lat;lon;timestamp;P1;durP1;ratioP1;P2;durP2;ratioP2
26951;SDS011;14507;52.418;13.398;2024-01-06T00:01:24;114.95;;;47.17;;
26951;SDS011;14507;52.418;13.398;2024-01-06T00:03:49;112.13;;;46.47;;
26951;SDS011;14507;52.418;13.398;2024-01-06T00:06:15;115.15;;;47.17;;
26951;SDS011;14507;52.418;13.398;2024-01-06T00:08:41;113.18;;;46.00;;
26951;SDS011;14507;52.418;13.398;2024-01-06T00:11:07;118.05;;;45.67;;
26951;SDS011;14507;52.418;13.398;2024-01-06T00:13:32;115.28;;;48.72;;
26951;SDS011;14507;52.418;13.398;2024-01-06T00:15:58;118.05;;;47.35;;
26951;SDS011;14507;52.418;13.398;2024-01-06T00:18:25;121.78;;;46.90;;
26951;SDS011;14507;52.418;13.398;2024-01-06T00:20:51;115.28;;;47.03;;
26951;SDS011;14507;52.418;13.398;2024-01-06T00:23:17;111.43;;;46.03;;
26951;SDS011;14507;52.418;13.398;2024-01-06T00:25:42;120.20;;;47.08;;
26951;SDS011;14507;52.418;13.398;2024-01-06T00:28:08;115.53;;;47.50;;
26951;SDS011;14507;52.418;13.398;2024-01-06T00:30:34;108.28;;;44.33;;
26951;SDS011;14507;52.418;13.398;2024-01-06T00:32:59;114.05;;;45.53;;
26951;SDS011;14507;52.418;13.398;2024-01-06T00:35:25;116.68;;;47.42;;
26951;SDS011;14507;52.418;13.398;2024-01-06T00:37:50;112.10;;;46.70;;
26951;SDS011;14507;52.418;13.398;2024-01-06T00:40:16;117.80;;;48.95;;
26951;SDS011;14507;52.418;13.398;2024-01-06T00:42:43;122.78;;;47.80;;
26951;SDS011;14507;52.418;13.398;2024-01-06T00:45:09;117.05;;;47.97;;
26951;SDS011;14507;52.418;13.398;2024-01-06T00:47:35;119.00;;;46.97;;
26951;SDS011;14507;52.418;13.398;2024-01-06T00:50:00;123.22;;;49.35;;
26951;SDS011;14507;52.418;13.398;2024-01-06T00:52:26;121.85;;;47.67;;
26951;SDS011;14507;52.418;13.398;2024-01-06T00:54:51;115.20;;;47.22;;
26951;SDS011;14507;52.418;13.398;2024-01-06T00:57:17;116.00;;;47.58;;
26951;SDS011;14507;52.418;13.398;2024-01-06T00:59:48;109.68;;;45.67;;
26951;SDS011;14507;52.418;13.398;2024-01-06T01:02:14;116.40;;;48.05;;
26951;SDS011;14507;52.418;13.398;2024-01-06T01:04:40;107.43;;;45.28;;
26951;SDS011;14507;52.418;13.398;2024-01-06T01:07:05;106.78;;;44.47;;
26951;SDS011;14507;52.418;13.398;2024-01-06T01:09:31;105.63;;;43.83;;
26951;SDS011;14507;52.418;13.398;2024-01-06T01:11:56;98.93;;;42.97;;
26951;SDS011;14507;52.418;13.398;2024-01-06T01:14:22;108.68;;;43.55;;
26951;SDS011;14507;52.418;13.398;2024-01-06T01:16:48;104.90;;;43.15;;
26951;SDS011;14507;52.418;13.398;2024-01-06T01:19:13;99.65;;;43.00;;
26951;SDS011;14507;52.418;13.398;2024-01-06T01:21:39;106.32;;;43.47;;
26951;SDS011;14507;52.418;13.398;2024-01-06T01:24:05;102.65;;;41.95;;
26951;SDS011;14507;52.418;13.398;2024-01-06T01:26:30;102.85;;;41.28;;
26951;SDS011;14507;52.418;13.398;2024-01-06T01:28:56;103.78;;;43.40;;
26951;SDS011;14507;52.418;13.398;2024-01-06T01:31:21;110.55;;;44.78;;
26951;SDS011;14507;52.418;13.398;2024-01-06T01:33:47;97.72;;;42.35;;
26951;SDS011;14507;52.418;13.398;2024-01-06T01:36:13;110.20;;;43.17;;
26951;SDS011;14507;52.418;13.398;2024-01-06T01:38:38;98.63;;;41.85;;
26951;SDS011;14507;52.418;13.398;2024-01-06T01:41:04;94.47;;;41.05;;
26951;SDS011;14507;52.418;13.398;2024-01-06T01:43:30;101.70;;;41.47;;
26951;SDS011;14507;52.418;13.398;2024-01-06T01:45:55;97.97;;;41.25;;
26951;SDS011;14507;52.418;13.398;2024-01-06T01:48:22;98.40;;;40.72;;
26951;SDS011;14507;52.418;13.398;2024-01-06T01:50:48;99.55;;;40.90;;
26951;SDS011;14507;52.418;13.398;2024-01-06T01:53:14;96.38;;;40.72;;
26951;SDS011;14507;52.418;13.398;2024-01-06T01:55:41;97.63;;;41.10;;
26951;SDS011;14507;52.418;13.398;2024-01-06T01:58:09;104.90;;;41.78;;
26951;SDS011;14507;52.418;13.398;2024-01-06T02:00:35;101.35;;;39.53;;
26951;SDS011;14507;52.418;13.398;2024-01-06T02:03:01;100.00;;;41.65;;
26951;SDS011;14507;52.418;13.398;2024-01-06T02:05:29;98.47;;;41.55;;
26951;SDS011;14507;52.418;13.398;2024-01-06T02:07:55;97.85;;;41.00;;
26951;SDS011;14507;52.418;13.398;2024-01-06T02:10:20;99.38;;;40.55;;
26951;SDS011;14507;52.418;13.398;2024-01-06T02:12:46;94.10;;;40.22;;
26951;SDS011;14507;52.418;13.398;2024-01-06T02:15:13;94.05;;;39.17;;
26951;SDS011;14507;52.418;13.398;2024-01-06T02:17:38;86.97;;;37.00;;
26951;SDS011;14507;52.418;13.398;2024-01-06T02:20:05;93.22;;;40.50;;
26951;SDS011;14507;52.418;13.398;2024-01-06T02:22:32;89.88;;;39.03;;
26951;SDS011;14507;52.418;13.398;2024-01-06T02:24:59;87.05;;;36.03;;
26951;SDS011;14507;52.418;13.398;2024-01-06T02:27:25;96.65;;;39.33;;
26951;SDS011;14507;52.418;13.398;2024-01-06T02:29:51;87.68;;;37.35;;
26951;SDS011;14507;52.418;13.398;2024-01-06T02:32:16;82.70;;;35.92;;
26951;SDS011;14507;52.418;13.398;2024-01-06T02:34:42;91.35;;;38.92;;
26951;SDS011;14507;52.418;13.398;2024-01-06T02:37:07;93.03;;;37.83;;
26951;SDS011;14507;52.418;13.398;2024-01-06T02:39:33;86.82;;;38.03;;
26951;SDS011;14507;52.418;13.398;2024-01-06T02:41:59;87.68;;;38.10;;
26951;SDS011;14507;52.418;13.398;2024-01-06T02:44:24;82.10;;;37.97;;
26951;SDS011;14507;52.418;13.398;2024-01-06T02:46:50;91.35;;;37.30;;
26951;SDS011;14507;52.418;13.398;2024-01-06T02:49:15;82.30;;;37.30;;
26951;SDS011;14507;52.418;13.398;2024-01-06T02:51:41;87.70;;;37.13;;
26951;SDS011;14507;52.418;13.398;2024-01-06T02:54:06;85.00;;;37.40;;
26951;SDS011;14507;52.418;13.398;2024-01-06T02:56:32;84.00;;;36.20;;
26951;SDS011;14507;52.418;13.398;2024-01-06T02:58:58;90.93;;;38.03;;
26951;SDS011;14507;52.418;13.398;2024-01-06T03:01:23;90.78;;;38.53;;
26951;SDS011;14507;52.418;13.398;2024-01-06T03:03:49;86.50;;;38.35;;
26951;SDS011;14507;52.418;13.398;2024-01-06T03:06:14;99.25;;;37.70;;
26951;SDS011;14507;52.418;13.398;2024-01-06T03:08:40;95.80;;;40.42;;
26951;SDS011;14507;52.418;13.398;2024-01-06T03:11:06;99.45;;;38.35;;
26951;SDS011;14507;52.418;13.398;2024-01-06T03:13:31;91.40;;;37.38;;
26951;SDS011;14507;52.418;13.398;2024-01-06T03:15:57;93.72;;;38.13;;
26951;SDS011;14507;52.418;13.398;2024-01-06T03:18:26;89.20;;;38.55;;
26951;SDS011;14507;52.418;13.398;2024-01-06T03:20:51;88.20;;;38.40;;
26951;SDS011;14507;52.418;13.398;2024-01-06T03:23:17;88.43;;;38.97;;
26951;SDS011;14507;52.418;13.398;2024-01-06T03:25:43;93.32;;;38.45;;
26951;SDS011;14507;52.418;13.398;2024-01-06T03:28:08;92.85;;;39.65;;
26951;SDS011;14507;52.418;13.398;2024-01-06T03:30:34;90.95;;;37.80;;
26951;SDS011;14507;52.418;13.398;2024-01-06T03:33:00;91.03;;;37.67;;
26951;SDS011;14507;52.418;13.398;2024-01-06T03:35:25;94.97;;;37.65;;
26951;SDS011;14507;52.418;13.398;2024-01-06T03:37:51;97.35;;;38.83;;
26951;SDS011;14507;52.418;13.398;2024-01-06T03:40:17;83.85;;;36.33;;
26951;SDS011;14507;52.418;13.398;2024-01-06T03:42:42;93.95;;;38.92;;
26951;SDS011;14507;52.418;13.398;2024-01-06T03:45:08;86.10;;;37.28;;
26951;SDS011;14507;52.418;13.398;2024-01-06T03:47:34;93.55;;;39.03;;
26951;SDS011;14507;52.418;13.398;2024-01-06T03:49:59;93.53;;;38.65;;
26951;SDS011;14507;52.418;13.398;2024-01-06T03:52:25;90.85;;;39.22;;
26951;SDS011;14507;52.418;13.398;2024-01-06T03:54:50;95.55;;;38.13;;
26951;SDS011;14507;52.418;13.398;2024-01-06T03:57:16;91.65;;;38.78;;
26951;SDS011;14507;52.418;13.398;2024-01-06T03:59:42;90.65;;;38.92;;
26951;SDS011;14507;52.418;13.398;2024-01-06T04:02:07;100.97;;;39.70;;
26951;SDS011;14507;52.418;13.398;2024-01-06T04:04:33;107.63;;;38.88;;
26951;SDS011;14507;52.418;13.398;2024-01-06T04:06:58;95.15;;;39.72;;
26951;SDS011;14507;52.418;13.398;2024-01-06T04:09:26;95.97;;;36.35;;
26951;SDS011;14507;52.418;13.398;2024-01-06T04:11:52;96.28;;;39.00;;
26951;SDS011;14507;52.418;13.398;2024-01-06T04:14:17;101.70;;;40.35;;
26951;SDS011;14507;52.418;13.398;2024-01-06T04:16:43;105.85;;;39.33;;
26951;SDS011;14507;52.418;13.398;2024-01-06T04:19:08;93.78;;;39.22;;
26951;SDS011;14507;52.418;13.398;2024-01-06T04:21:36;96.72;;;39.47;;
26951;SDS011;14507;52.418;13.398;2024-01-06T04:24:01;100.53;;;39.95;;
26951;SDS011;14507;52.418;13.398;2024-01-06T04:26:27;98.93;;;39.33;;
26951;SDS011;14507;52.418;13.398;2024-01-06T04:28:53;91.28;;;37.03;;
26951;SDS011;14507;52.418;13.398;2024-01-06T04:31:18;104.22;;;38.88;;
26951;SDS011;14507;52.418;13.398;2024-01-06T04:33:44;102.03;;;38.17;;
26951;SDS011;14507;52.418;13.398;2024-01-06T04:36:09;100.90;;;40.40;;
26951;SDS011;14507;52.418;13.398;2024-01-06T04:38:35;98.72;;;38.75;;
26951;SDS011;14507;52.418;13.398;2024-01-06T04:41:00;107.43;;;41.08;;
26951;SDS011;14507;52.418;13.398;2024-01-06T04:43:26;103.57;;;40.88;;
26951;SDS011;14507;52.418;13.398;2024-01-06T04:45:52;98.35;;;38.97;;
26951;SDS011;14507;52.418;13.398;2024-01-06T04:48:17;105.03;;;39.47;;
26951;SDS011;14507;52.418;13.398;2024-01-06T04:50:43;110.35;;;40.05;;
26951;SDS011;14507;52.418;13.398;2024-01-06T04:53:09;108.10;;;41.25;;
26951;SDS011;14507;52.418;13.398;2024-01-06T04:55:34;99.78;;;39.20;;
26951;SDS011;14507;52.418;13.398;2024-01-06T04:58:00;106.22;;;40.83;;
26951;SDS011;14507;52.418;13.398;2024-01-06T05:00:25;103.05;;;39.55;;
26951;SDS011;14507;52.418;13.398;2024-01-06T05:02:51;110.68;;;41.83;;
26951;SDS011;14507;52.418;13.398;2024-01-06T05:05:17;113.10;;;41.40;;
26951;SDS011;14507;52.418;13.398;2024-01-06T05:07:42;101.18;;;39.65;;
26951;SDS011;14507;52.418;13.398;2024-01-06T05:10:08;105.60;;;40.92;;
26951;SDS011;14507;52.418;13.398;2024-01-06T05:12:34;115.80;;;41.20;;
26951;SDS011;14507;52.418;13.398;2024-01-06T05:14:59;111.15;;;41.00;;
26951;SDS011;14507;52.418;13.398;2024-01-06T05:17:25;100.28;;;39.00;;
26951;SDS011;14507;52.418;13.398;2024-01-06T05:19:50;104.15;;;40.33;;
26951;SDS011;14507;52.418;13.398;2024-01-06T05:22:16;103.53;;;39.83;;
26951;SDS011;14507;52.418;13.398;2024-01-06T05:24:42;102.85;;;40.58;;
26951;SDS011;14507;52.418;13.398;2024-01-06T05:27:07;102.15;;;39.83;;
26951;SDS011;14507;52.418;13.398;2024-01-06T05:29:33;98.57;;;38.88;;
26951;SDS011;14507;52.418;13.398;2024-01-06T05:31:58;103.18;;;42.00;;
26951;SDS011;14507;52.418;13.398;2024-01-06T05:34:24;103.93;;;41.78;;
26951;SDS011;14507;52.418;13.398;2024-01-06T05:36:50;106.47;;;41.20;;
26951;SDS011;14507;52.418;13.398;2024-01-06T05:39:16;101.25;;;40.55;;
26951;SDS011;14507;52.418;13.398;2024-01-06T05:41:42;107.75;;;40.03;;
26951;SDS011;14507;52.418;13.398;2024-01-06T05:44:07;99.38;;;39.75;;
26951;SDS011;14507;52.418;13.398;2024-01-06T05:46:33;106.25;;;40.38;;
26951;SDS011;14507;52.418;13.398;2024-01-06T05:48:59;103.47;;;40.45;;
26951;SDS011;14507;52.418;13.398;2024-01-06T05:51:25;103.47;;;42.65;;
26951;SDS011;14507;52.418;13.398;2024-01-06T05:53:51;104.00;;;41.63;;
26951;SDS011;14507;52.418;13.398;2024-01-06T05:56:25;107.18;;;43.13;;
26951;SDS011;14507;52.418;13.398;2024-01-06T05:58:52;106.55;;;40.58;;
26951;SDS011;14507;52.418;13.398;2024-01-06T06:01:18;100.03;;;42.00;;
26951;SDS011;14507;52.418;13.398;2024-01-06T06:03:45;113.25;;;42.78;;
26951;SDS011;14507;52.418;13.398;2024-01-06T06:06:11;114.65;;;42.72;;
26951;SDS011;14507;52.418;13.398;2024-01-06T06:08:37;116.85;;;43.38;;
26951;SDS011;14507;52.418;13.398;2024-01-06T06:11:03;105.70;;;42.45;;
26951;SDS011;14507;52.418;13.398;2024-01-06T06:13:36;112.78;;;42.25;;
26951;SDS011;14507;52.418;13.398;2024-01-06T06:16:06;107.65;;;42.20;;
26951;SDS011;14507;52.418;13.398;2024-01-06T06:18:35;110.30;;;43.60;;
26951;SDS011;14507;52.418;13.398;2024-01-06T06:21:00;110.30;;;43.35;;
26951;SDS011;14507;52.418;13.398;2024-01-06T06:23:28;107.05;;;42.13;;
26951;SDS011;14507;52.418;13.398;2024-01-06T06:25:54;112.22;;;42.35;;
26951;SDS011;14507;52.418;13.398;2024-01-06T06:28:20;107.90;;;43.03;;
26951;SDS011;14507;52.418;13.398;2024-01-06T06:30:45;109.65;;;41.78;;
26951;SDS011;14507;52.418;13.398;2024-01-06T06:33:11;108.63;;;40.70;;
26951;SDS011;14507;52.418;13.398;2024-01-06T06:35:37;113.32;;;43.58;;
26951;SDS011;14507;52.418;13.398;2024-01-06T06:38:02;112.88;;;43.15;;
26951;SDS011;14507;52.418;13.398;2024-01-06T06:40:28;109.95;;;43.28;;
26951;SDS011;14507;52.418;13.398;2024-01-06T06:42:54;105.00;;;43.00;;
26951;SDS011;14507;52.418;13.398;2024-01-06T06:45:19;106.57;;;42.50;;
26951;SDS011;14507;52.418;13.398;2024-01-06T06:47:47;111.53;;;42.15;;
26951;SDS011;14507;52.418;13.398;2024-01-06T06:50:14;110.43;;;41.10;;
26951;SDS011;14507;52.418;13.398;2024-01-06T06:52:41;106.40;;;41.90;;
26951;SDS011;14507;52.418;13.398;2024-01-06T06:55:07;116.95;;;43.45;;
26951;SDS011;14507;52.418;13.398;2024-01-06T06:57:33;106.28;;;41.97;;
26951;SDS011;14507;52.418;13.398;2024-01-06T06:59:58;98.60;;;41.08;;
26951;SDS011;14507;52.418;13.398;2024-01-06T07:02:25;117.03;;;42.92;;
26951;SDS011;14507;52.418;13.398;2024-01-06T07:04:51;109.15;;;42.15;;
26951;SDS011;14507;52.418;13.398;2024-01-06T07:07:16;106.38;;;40.80;;
26951;SDS011;14507;52.418;13.398;2024-01-06T07:09:42;109.85;;;40.50;;
26951;SDS011;14507;52.418;13.398;2024-01-06T07:12:08;110.22;;;42.22;;
26951;SDS011;14507;52.418;13.398;2024-01-06T07:14:33;111.13;;;42.22;;
26951;SDS011;14507;52.418;13.398;2024-01-06T07:16:59;108.18;;;42.55;;
26951;SDS011;14507;52.418;13.398;2024-01-06T07:19:24;106.30;;;40.65;;
26951;SDS011;14507;52.418;13.398;2024-01-06T07:21:50;111.60;;;40.45;;
26951;SDS011;14507;52.418;13.398;2024-01-06T07:24:16;112.13;;;41.65;;
26951;SDS011;14507;52.418;13.398;2024-01-06T07:26:41;116.82;;;42.10;;
26951;SDS011;14507;52.418;13.398;2024-01-06T07:29:07;109.57;;;37.78;;
26951;SDS011;14507;52.418;13.398;2024-01-06T07:31:33;121.78;;;40.25;;
26951;SDS011;14507;52.418;13.398;2024-01-06T07:33:59;101.25;;;37.38;;
26951;SDS011;14507;52.418;13.398;2024-01-06T07:36:25;102.05;;;38.67;;
26951;SDS011;14507;52.418;13.398;2024-01-06T07:38:50;112.10;;;39.67;;
26951;SDS011;14507;52.418;13.398;2024-01-06T07:41:17;110.72;;;39.78;;
26951;SDS011;14507;52.418;13.398;2024-01-06T07:43:43;106.82;;;38.83;;
26951;SDS011;14507;52.418;13.398;2024-01-06T07:46:09;109.63;;;39.17;;
26951;SDS011;14507;52.418;13.398;2024-01-06T07:48:35;111.25;;;39.72;;
26951;SDS011;14507;52.418;13.398;2024-01-06T07:51:01;108.10;;;39.20;;
26951;SDS011;14507;52.418;13.398;2024-01-06T07:53:27;108.60;;;40.38;;
26951;SDS011;14507;52.418;13.398;2024-01-06T07:55:53;120.65;;;41.67;;
26951;SDS011;14507;52.418;13.398;2024-01-06T07:58:19;122.22;;;41.03;;
26951;SDS011;14507;52.418;13.398;2024-01-06T08:00:45;114.95;;;40.83;;
26951;SDS011;14507;52.418;13.398;2024-01-06T08:03:10;108.97;;;39.17;;
26951;SDS011;14507;52.418;13.398;2024-01-06T08:05:36;113.25;;;41.50;;
26951;SDS011;14507;52.418;13.398;2024-01-06T08:08:02;119.63;;;40.55;;
26951;SDS011;14507;52.418;13.398;2024-01-06T08:10:29;117.40;;;40.38;;
26951;SDS011;14507;52.418;13.398;2024-01-06T08:12:55;111.15;;;40.13;;
26951;SDS011;14507;52.418;13.398;2024-01-06T08:15:20;121.75;;;40.03;;
26951;SDS011;14507;52.418;13.398;2024-01-06T08:17:46;124.55;;;41.30;;
26951;SDS011;14507;52.418;13.398;2024-01-06T08:20:12;119.43;;;42.47;;
26951;SDS011;14507;52.418;13.398;2024-01-06T08:22:37;127.00;;;43.45;;
26951;SDS011;14507;52.418;13.398;2024-01-06T08:25:03;123.90;;;44.28;;
26951;SDS011;14507;52.418;13.398;2024-01-06T08:27:32;127.13;;;45.00;;
26951;SDS011;14507;52.418;13.398;2024-01-06T08:29:58;124.57;;;45.35;;
26951;SDS011;14507;52.418;13.398;2024-01-06T08:32:23;118.68;;;43.83;;
26951;SDS011;14507;52.418;13.398;2024-01-06T08:34:49;117.55;;;43.97;;
26951;SDS011;14507;52.418;13.398;2024-01-06T08:37:15;121.82;;;43.17;;
26951;SDS011;14507;52.418;13.398;2024-01-06T08:39:40;135.07;;;45.83;;
26951;SDS011;14507;52.418;13.398;2024-01-06T08:42:06;124.70;;;48.90;;
26951;SDS011;14507;52.418;13.398;2024-01-06T08:44:32;141.10;;;50.22;;
26951;SDS011;14507;52.418;13.398;2024-01-06T08:46:57;136.15;;;49.90;;
26951;SDS011;14507;52.418;13.398;2024-01-06T08:49:23;127.05;;;45.70;;
26951;SDS011;14507;52.418;13.398;2024-01-06T08:51:49;119.28;;;43.90;;
26951;SDS011;14507;52.418;13.398;2024-01-06T08:54:15;127.78;;;45.40;;
26951;SDS011;14507;52.418;13.398;2024-01-06T08:56:41;122.70;;;45.40;;
26951;SDS011;14507;52.418;13.398;2024-01-06T08:59:06;131.60;;;43.97;;
26951;SDS011;14507;52.418;13.398;2024-01-06T09:01:32;137.52;;;44.70;;
26951;SDS011;14507;52.418;13.398;2024-01-06T09:04:00;128.98;;;44.10;;
26951;SDS011;14507;52.418;13.398;2024-01-06T09:06:26;125.35;;;44.50;;
26951;SDS011;14507;52.418;13.398;2024-01-06T09:08:52;112.93;;;41.70;;
26951;SDS011;14507;52.418;13.398;2024-01-06T09:11:18;121.05;;;43.38;;
26951;SDS011;14507;52.418;13.398;2024-01-06T09:13:43;122.22;;;44.25;;
26951;SDS011;14507;52.418;13.398;2024-01-06T09:16:09;130.95;;;43.42;;
26951;SDS011;14507;52.418;13.398;2024-01-06T09:18:35;114.70;;;40.33;;
26951;SDS011;14507;52.418;13.398;2024-01-06T09:21:01;116.55;;;41.17;;
26951;SDS011;14507;52.418;13.398;2024-01-06T09:23:28;124.35;;;42.03;;
26951;SDS011;14507;52.418;13.398;2024-01-06T09:25:54;120.53;;;44.30;;
26951;SDS011;14507;52.418;13.398;2024-01-06T09:28:19;121.05;;;42.17;;
26951;SDS011;14507;52.418;13.398;2024-01-06T09:30:48;124.88;;;44.40;;
26951;SDS011;14507;52.418;13.398;2024-01-06T09:33:14;113.40;;;43.13;;
26951;SDS011;14507;52.418;13.398;2024-01-06T09:35:41;139.27;;;45.15;;
26951;SDS011;14507;52.418;13.398;2024-01-06T09:38:07;119.07;;;41.97;;
26951;SDS011;14507;52.418;13.398;2024-01-06T09:40:32;131.88;;;43.85;;
26951;SDS011;14507;52.418;13.398;2024-01-06T09:43:00;114.72;;;42.90;;
26951;SDS011;14507;52.418;13.398;2024-01-06T09:45:27;119.32;;;42.25;;
26951;SDS011;14507;52.418;13.398;2024-01-06T09:47:53;125.40;;;43.95;;
26951;SDS011;14507;52.418;13.398;2024-01-06T09:50:20;117.75;;;41.65;;
26951;SDS011;14507;52.418;13.398;2024-01-06T09:52:47;116.13;;;42.75;;
26951;SDS011;14507;52.418;13.398;2024-01-06T09:55:25;113.55;;;42.10;;
26951;SDS011;14507;52.418;13.398;2024-01-06T09:57:54;120.60;;;43.55;;
26951;SDS011;14507;52.418;13.398;2024-01-06T10:00:20;124.10;;;43.28;;
26951;SDS011;14507;52.418;13.398;2024-01-06T10:02:47;119.88;;;44.15;;
26951;SDS011;14507;52.418;13.398;2024-01-06T10:05:16;128.10;;;43.78;;
26951;SDS011;14507;52.418;13.398;2024-01-06T10:07:43;119.00;;;42.33;;
26951;SDS011;14507;52.418;13.398;2024-01-06T10:10:09;117.82;;;42.30;;
26951;SDS011;14507;52.418;13.398;2024-01-06T10:12:39;119.75;;;41.08;;
26951;SDS011;14507;52.418;13.398;2024-01-06T10:15:06;112.90;;;42.08;;
26951;SDS011;14507;52.418;13.398;2024-01-06T10:17:36;124.38;;;44.25;;
26951;SDS011;14507;52.418;13.398;2024-01-06T10:20:09;110.47;;;42.35;;
26951;SDS011;14507;52.418;13.398;2024-01-06T10:22:37;123.20;;;45.65;;
26951;SDS011;14507;52.418;13.398;2024-01-06T10:27:33;101.63;;;39.75;;
26951;SDS011;14507;52.418;13.398;2024-01-06T10:30:06;117.78;;;42.78;;
26951;SDS011;14507;52.418;13.398;2024-01-06T10:32:33;111.80;;;43.70;;
26951;SDS011;14507;52.418;13.398;2024-01-06T10:35:03;110.97;;;42.40;;
26951;SDS011;14507;52.418;13.398;2024-01-06T10:37:30;107.03;;;42.72;;
26951;SDS011;14507;52.418;13.398;2024-01-06T10:42:35;114.07;;;41.47;;
26951;SDS011;14507;52.418;13.398;2024-01-06T10:45:04;107.95;;;42.38;;
26951;SDS011;14507;52.418;13.398;2024-01-06T10:47:34;113.32;;;41.30;;
26951;SDS011;14507;52.418;13.398;2024-01-06T10:50:00;108.32;;;43.78;;
26951;SDS011;14507;52.418;13.398;2024-01-06T10:52:26;103.20;;;40.78;;
26951;SDS011;14507;52.418;13.398;2024-01-06T10:54:53;102.97;;;42.78;;
26951;SDS011;14507;52.418;13.398;2024-01-06T10:57:20;108.55;;;41.50;;
26951;SDS011;14507;52.418;13.398;2024-01-06T10:59:47;92.75;;;40.67;;
26951;SDS011;14507;52.418;13.398;2024-01-06T11:02:15;100.65;;;40.20;;
26951;SDS011;14507;52.418;13.398;2024-01-06T11:04:47;95.10;;;40.22;;
26951;SDS011;14507;52.418;13.398;2024-01-06T11:07:15;106.50;;;41.75;;
26951;SDS011;14507;52.418;13.398;2024-01-06T11:09:47;97.32;;;39.65;;
26951;SDS011;14507;52.418;13.398;2024-01-06T11:12:18;99.93;;;39.75;;
26951;SDS011;14507;52.418;13.398;2024-01-06T11:14:44;93.00;;;38.60;;
26951;SDS011;14507;52.418;13.398;2024-01-06T11:17:11;102.93;;;39.70;;
26951;SDS011;14507;52.418;13.398;2024-01-06T11:25:07;101.72;;;41.08;;
26951;SDS011;14507;52.418;13.398;2024-01-06T11:27:37;92.53;;;39.00;;
26951;SDS011;14507;52.418;13.398;2024-01-06T11:30:03;86.95;;;38.83;;
26951;SDS011;14507;52.418;13.398;2024-01-06T11:35:05;89.18;;;40.75;;
26951;SDS011;14507;52.418;13.398;2024-01-06T11:40:03;82.55;;;37.80;;
26951;SDS011;14507;52.418;13.398;2024-01-06T11:42:33;96.53;;;39.97;;
26951;SDS011;14507;52.418;13.398;2024-01-06T11:45:03;89.53;;;37.10;;
26951;SDS011;14507;52.418;13.398;2024-01-06T11:47:32;86.10;;;38.17;;
26951;SDS011;14507;52.418;13.398;2024-01-06T11:49:59;87.85;;;37.83;;
26951;SDS011;14507;52.418;13.398;2024-01-06T11:52:28;92.10;;;40.20;;
26951;SDS011;14507;52.418;13.398;2024-01-06T11:54:54;81.03;;;37.28;;
26951;SDS011;14507;52.418;13.398;2024-01-06T11:57:21;95.70;;;40.50;;
26951;SDS011;14507;52.418;13.398;2024-01-06T11:59:47;93.28;;;38.60;;
26951;SDS011;14507;52.418;13.398;2024-01-06T12:02:13;85.50;;;36.78;;
26951;SDS011;14507;52.418;13.398;2024-01-06T12:04:39;88.80;;;40.03;;
26951;SDS011;14507;52.418;13.398;2024-01-06T12:07:08;86.03;;;39.25;;
26951;SDS011;14507;52.418;13.398;2024-01-06T12:09:35;87.90;;;37.95;;
26951;SDS011;14507;52.418;13.398;2024-01-06T12:12:04;86.95;;;38.33;;
26951;SDS011;14507;52.418;13.398;2024-01-06T12:14:30;87.65;;;37.95;;
26951;SDS011;14507;52.418;13.398;2024-01-06T12:16:58;91.50;;;39.42;;
26951;SDS011;14507;52.418;13.398;2024-01-06T12:19:28;90.20;;;40.83;;
26951;SDS011;14507;52.418;13.398;2024-01-06T12:21:55;95.20;;;40.13;;
26951;SDS011;14507;52.418;13.398;2024-01-06T12:24:21;85.20;;;38.28;;
26951;SDS011;14507;52.418;13.398;2024-01-06T12:26:47;88.88;;;38.72;;
26951;SDS011;14507;52.418;13.398;2024-01-06T12:29:13;82.00;;;37.35;;
26951;SDS011;14507;52.418;13.398;2024-01-06T12:31:39;79.45;;;36.05;;
26951;SDS011;14507;52.418;13.398;2024-01-06T12:34:06;77.55;;;35.65;;
26951;SDS011;14507;52.418;13.398;2024-01-06T12:36:35;76.28;;;33.92;;
26951;SDS011;14507;52.418;13.398;2024-01-06T12:39:06;87.28;;;39.47;;
26951;SDS011;14507;52.418;13.398;2024-01-06T12:41:38;82.38;;;37.22;;
26951;SDS011;14507;52.418;13.398;2024-01-06T12:44:06;86.10;;;37.25;;
26951;SDS011;14507;52.418;13.398;2024-01-06T12:46:33;81.47;;;36.90;;
26951;SDS011;14507;52.418;13.398;2024-01-06T12:48:59;93.18;;;38.63;;
26951;SDS011;14507;52.418;13.398;2024-01-06T12:51:24;86.90;;;37.03;;
26951;SDS011;14507;52.418;13.398;2024-01-06T12:53:50;81.72;;;36.95;;
26951;SDS011;14507;52.418;13.398;2024-01-06T12:56:17;79.90;;;35.83;;
26951;SDS011;14507;52.418;13.398;2024-01-06T12:58:43;79.53;;;35.55;;
26951;SDS011;14507;52.418;13.398;2024-01-06T13:01:09;82.70;;;36.50;;
26951;SDS011;14507;52.418;13.398;2024-01-06T13:03:35;83.30;;;36.22;;
26951;SDS011;14507;52.418;13.398;2024-01-06T13:06:01;75.00;;;35.25;;
26951;SDS011;14507;52.418;13.398;2024-01-06T13:08:27;79.22;;;35.15;;
26951;SDS011;14507;52.418;13.398;2024-01-06T13:10:53;79.50;;;34.80;;
26951;SDS011;14507;52.418;13.398;2024-01-06T13:13:19;82.28;;;36.67;;
26951;SDS011;14507;52.418;13.398;2024-01-06T13:15:45;86.05;;;36.20;;
26951;SDS011;14507;52.418;13.398;2024-01-06T13:18:11;78.20;;;33.83;;
26951;SDS011;14507;52.418;13.398;2024-01-06T13:20:37;76.43;;;34.03;;
26951;SDS011;14507;52.418;13.398;2024-01-06T13:23:07;70.45;;;32.53;;
26951;SDS011;14507;52.418;13.398;2024-01-06T13:25:33;75.38;;;34.20;;
26951;SDS011;14507;52.418;13.398;2024-01-06T13:27:59;79.18;;;34.80;;
26951;SDS011;14507;52.418;13.398;2024-01-06T13:30:25;74.63;;;32.92;;
26951;SDS011;14507;52.418;13.398;2024-01-06T13:32:51;77.35;;;33.17;;
26951;SDS011;14507;52.418;13.398;2024-01-06T13:35:19;77.55;;;32.95;;
26951;SDS011;14507;52.418;13.398;2024-01-06T13:37:45;76.85;;;34.22;;
26951;SDS011;14507;52.418;13.398;2024-01-06T13:40:13;68.05;;;31.45;;
26951;SDS011;14507;52.418;13.398;2024-01-06T13:42:39;78.63;;;33.03;;
26951;SDS011;14507;52.418;13.398;2024-01-06T13:45:05;70.55;;;32.13;;
26951;SDS011;14507;52.418;13.398;2024-01-06T13:47:31;81.50;;;33.83;;
26951;SDS011;14507;52.418;13.398;2024-01-06T13:49:57;79.50;;;32.97;;
26951;SDS011;14507;52.418;13.398;2024-01-06T13:52:23;72.30;;;31.40;;
26951;SDS011;14507;52.418;13.398;2024-01-06T13:54:49;72.05;;;34.38;;
26951;SDS011;14507;52.418;13.398;2024-01-06T13:57:17;71.65;;;33.30;;
26951;SDS011;14507;52.418;13.398;2024-01-06T13:59:42;67.82;;;32.58;;
26951;SDS011;14507;52.418;13.398;2024-01-06T14:02:08;72.20;;;33.25;;
26951;SDS011;14507;52.418;13.398;2024-01-06T14:04:35;64.47;;;29.42;;
26951;SDS011;14507;52.418;13.398;2024-01-06T14:07:01;71.07;;;31.45;;
26951;SDS011;14507;52.418;13.398;2024-01-06T14:09:30;65.95;;;31.25;;
26951;SDS011;14507;52.418;13.398;2024-01-06T14:11:55;67.80;;;30.70;;